sensor_id;sensor_type;location;lat;lon;timestamp;pressure;altitude;pressure_sealevel;temperature;humidity
44453;BME280;30155;52.164;21.236;2022-09-01T00:04:43;101001.66;;;13.60;63.49
44453;BME280;30155;52.164;21.236;2022-09-01T00:09:35;100995.44;;;13.46;63.55
44453;BME280;30155;52.164;21.236;2022-09-01T00:14:30;100998.38;;;13.34;63.72
44453;BME280;30155;52.164;21.236;2022-09-01T00:19:23;100996.87;;;13.19;63.91
44453;BME280;30155;52.164;21.236;2022-09-01T00:24:16;100999.73;;;13.03;64.06
44453;BME280;30155;52.164;21.236;2022-09-01T00:29:07;101000.36;;;12.81;64.26
44453;BME280;30155;52.164;21.236;2022-09-01T00:33:59;101001.96;;;12.71;64.48
44453;BME280;30155;52.164;21.236;2022-09-01T00:38:51;101000.98;;;12.61;64.85
44453;BME280;30155;52.164;21.236;2022-09-01T00:43:45;101000.43;;;12.52;64.92
44453;BME280;30155;52.164;21.236;2022-09-01T00:48:38;100991.16;;;12.42;65.01
44453;BME280;30155;52.164;21.236;2022-09-01T00:53:30;101007.98;;;12.32;65.11
44453;BME280;30155;52.164;21.236;2022-09-01T00:58:23;101006.52;;;12.22;65.19
44453;BME280;30155;52.164;21.236;2022-09-01T01:03:15;101004.16;;;12.10;65.44
44453;BME280;30155;52.164;21.236;2022-09-01T01:08:07;101008.91;;;12.08;65.75
44453;BME280;30155;52.164;21.236;2022-09-01T01:12:59;101002.66;;;11.98;65.55
44453;BME280;30155;52.164;21.236;2022-09-01T01:17:52;101014.58;;;11.85;65.77
44453;BME280;30155;52.164;21.236;2022-09-01T01:28:28;101004.48;;;11.78;66.50
44453;BME280;30155;52.164;21.236;2022-09-01T01:33:24;101001.41;;;11.76;66.33
44453;BME280;30155;52.164;21.236;2022-09-01T01:38:19;101000.83;;;11.67;66.37
44453;BME280;30155;52.164;21.236;2022-09-01T01:43:14;101002.41;;;11.57;66.33
44453;BME280;30155;52.164;21.236;2022-09-01T01:48:07;100998.34;;;11.50;66.61
44453;BME280;30155;52.164;21.236;2022-09-01T01:53:02;101002.50;;;11.38;66.65
44453;BME280;30155;52.164;21.236;2022-09-01T01:57:59;100996.56;;;11.22;66.48
44453;BME280;30155;52.164;21.236;2022-09-01T02:02:50;100997.22;;;11.12;67.00
44453;BME280;30155;52.164;21.236;2022-09-01T02:07:42;100995.05;;;11.11;67.16
44453;BME280;30155;52.164;21.236;2022-09-01T02:12:34;100991.95;;;11.07;67.28
44453;BME280;30155;52.164;21.236;2022-09-01T02:17:27;100984.34;;;10.96;67.35
44453;BME280;30155;52.164;21.236;2022-09-01T02:22:18;100987.30;;;10.92;67.31
44453;BME280;30155;52.164;21.236;2022-09-01T02:27:11;100987.70;;;10.90;67.63
44453;BME280;30155;52.164;21.236;2022-09-01T02:32:03;100982.89;;;10.88;67.86
44453;BME280;30155;52.164;21.236;2022-09-01T02:36:56;100989.62;;;10.77;67.41
44453;BME280;30155;52.164;21.236;2022-09-01T02:41:48;100983.83;;;10.70;67.61
44453;BME280;30155;52.164;21.236;2022-09-01T02:46:44;100988.02;;;10.63;67.59
44453;BME280;30155;52.164;21.236;2022-09-01T02:51:36;100986.22;;;10.60;67.99
44453;BME280;30155;52.164;21.236;2022-09-01T02:56:28;100994.77;;;10.55;67.87
44453;BME280;30155;52.164;21.236;2022-09-01T03:01:28;100992.41;;;10.45;67.90
44453;BME280;30155;52.164;21.236;2022-09-01T03:06:22;100988.35;;;10.39;67.78
44453;BME280;30155;52.164;21.236;2022-09-01T03:11:14;100987.37;;;10.34;67.84
44453;BME280;30155;52.164;21.236;2022-09-01T03:16:06;100989.89;;;10.30;68.30
44453;BME280;30155;52.164;21.236;2022-09-01T03:21:00;100996.86;;;10.32;68.47
44453;BME280;30155;52.164;21.236;2022-09-01T03:25:52;100999.49;;;10.33;68.84
44453;BME280;30155;52.164;21.236;2022-09-01T03:30:50;100997.44;;;10.20;68.40
44453;BME280;30155;52.164;21.236;2022-09-01T03:35:43;100997.44;;;10.20;68.40
44453;BME280;30155;52.164;21.236;2022-09-01T03:40:36;100999.87;;;10.14;68.30
44453;BME280;30155;52.164;21.236;2022-09-01T03:45:28;101010.63;;;10.10;68.50
44453;BME280;30155;52.164;21.236;2022-09-01T03:50:22;101007.16;;;10.09;68.64
44453;BME280;30155;52.164;21.236;2022-09-01T03:55:16;101006.73;;;10.10;69.01
44453;BME280;30155;52.164;21.236;2022-09-01T04:00:12;101005.98;;;10.14;69.49
44453;BME280;30155;52.164;21.236;2022-09-01T04:05:05;100993.34;;;10.12;69.18
44453;BME280;30155;52.164;21.236;2022-09-01T04:09:57;100993.34;;;10.12;69.18
44453;BME280;30155;52.164;21.236;2022-09-01T04:14:48;100994.59;;;10.09;70.01
44453;BME280;30155;52.164;21.236;2022-09-01T04:19:39;100994.59;;;10.09;70.01
44453;BME280;30155;52.164;21.236;2022-09-01T04:24:33;100992.05;;;10.12;70.22
44453;BME280;30155;52.164;21.236;2022-09-01T04:29:25;100992.05;;;10.12;70.22
44453;BME280;30155;52.164;21.236;2022-09-01T04:34:20;101002.52;;;10.15;70.01
44453;BME280;30155;52.164;21.236;2022-09-01T04:39:12;101003.90;;;10.18;70.40
44453;BME280;30155;52.164;21.236;2022-09-01T04:44:05;101003.90;;;10.18;70.40
44453;BME280;30155;52.164;21.236;2022-09-01T04:48:59;100999.61;;;10.20;70.48
44453;BME280;30155;52.164;21.236;2022-09-01T04:53:57;100994.93;;;10.24;70.62
44453;BME280;30155;52.164;21.236;2022-09-01T04:58:49;101008.47;;;10.28;70.94
44453;BME280;30155;52.164;21.236;2022-09-01T05:03:45;101001.70;;;10.35;71.31
44453;BME280;30155;52.164;21.236;2022-09-01T05:08:43;101004.38;;;10.57;71.69
44453;BME280;30155;52.164;21.236;2022-09-01T05:13:39;101004.38;;;10.57;71.69
44453;BME280;30155;52.164;21.236;2022-09-01T05:18:31;101004.56;;;10.66;71.79
44453;BME280;30155;52.164;21.236;2022-09-01T05:23:23;101006.05;;;10.76;71.96
44453;BME280;30155;52.164;21.236;2022-09-01T05:28:17;101006.70;;;10.86;72.03
44453;BME280;30155;52.164;21.236;2022-09-01T05:33:09;101012.16;;;10.98;72.38
44453;BME280;30155;52.164;21.236;2022-09-01T05:38:03;101008.90;;;11.10;72.15
44453;BME280;30155;52.164;21.236;2022-09-01T05:42:55;100998.70;;;11.21;71.74
44453;BME280;30155;52.164;21.236;2022-09-01T05:47:48;100998.53;;;11.35;71.82
44453;BME280;30155;52.164;21.236;2022-09-01T05:52:39;101002.66;;;11.48;71.59
44453;BME280;30155;52.164;21.236;2022-09-01T05:57:33;100997.23;;;11.59;71.67
44453;BME280;30155;52.164;21.236;2022-09-01T06:02:27;101000.48;;;11.72;71.49
44453;BME280;30155;52.164;21.236;2022-09-01T06:07:20;100998.48;;;11.82;71.34
44453;BME280;30155;52.164;21.236;2022-09-01T06:12:15;101004.37;;;11.96;71.25
44453;BME280;30155;52.164;21.236;2022-09-01T06:17:07;101001.95;;;12.08;71.18
44453;BME280;30155;52.164;21.236;2022-09-01T06:22:00;101005.62;;;12.21;70.79
44453;BME280;30155;52.164;21.236;2022-09-01T06:26:52;101009.33;;;12.37;70.42
44453;BME280;30155;52.164;21.236;2022-09-01T06:31:46;101002.14;;;12.50;70.19
44453;BME280;30155;52.164;21.236;2022-09-01T06:36:39;101005.83;;;12.68;69.65
44453;BME280;30155;52.164;21.236;2022-09-01T06:41:30;101004.94;;;13.02;68.80
44453;BME280;30155;52.164;21.236;2022-09-01T06:46:23;101009.59;;;13.27;68.52
44453;BME280;30155;52.164;21.236;2022-09-01T06:51:19;101014.94;;;13.37;68.37
44453;BME280;30155;52.164;21.236;2022-09-01T06:56:13;101012.87;;;13.47;67.68
44453;BME280;30155;52.164;21.236;2022-09-01T07:01:06;101013.38;;;13.57;67.34
44453;BME280;30155;52.164;21.236;2022-09-01T07:06:04;101017.02;;;13.73;66.73
44453;BME280;30155;52.164;21.236;2022-09-01T07:11:16;101015.54;;;14.07;66.25
44453;BME280;30155;52.164;21.236;2022-09-01T07:16:03;101015.67;;;14.24;66.00
44453;BME280;30155;52.164;21.236;2022-09-01T07:20:58;101013.42;;;14.84;65.33
44453;BME280;30155;52.164;21.236;2022-09-01T07:25:50;101010.57;;;16.17;63.52
44453;BME280;30155;52.164;21.236;2022-09-01T07:30:51;101003.05;;;16.57;62.76
44453;BME280;30155;52.164;21.236;2022-09-01T07:35:44;101003.70;;;18.29;59.69
44453;BME280;30155;52.164;21.236;2022-09-01T07:40:37;100998.07;;;18.61;59.27
44453;BME280;30155;52.164;21.236;2022-09-01T07:45:42;101012.81;;;17.96;60.18
44453;BME280;30155;52.164;21.236;2022-09-01T07:50:40;101000.59;;;17.82;59.56
44453;BME280;30155;52.164;21.236;2022-09-01T07:55:34;100996.35;;;17.66;59.49
44453;BME280;30155;52.164;21.236;2022-09-01T08:00:25;100999.06;;;17.57;58.77
44453;BME280;30155;52.164;21.236;2022-09-01T08:05:19;101006.57;;;17.46;58.84
44453;BME280;30155;52.164;21.236;2022-09-01T08:10:12;101002.02;;;17.67;57.97
44453;BME280;30155;52.164;21.236;2022-09-01T08:15:07;101005.48;;;17.75;57.60
44453;BME280;30155;52.164;21.236;2022-09-01T08:19:59;101014.67;;;17.78;57.42
44453;BME280;30155;52.164;21.236;2022-09-01T08:25:07;101006.63;;;18.00;56.93
44453;BME280;30155;52.164;21.236;2022-09-01T08:29:59;100997.66;;;18.60;56.07
44453;BME280;30155;52.164;21.236;2022-09-01T08:34:50;101001.55;;;19.33;54.92
44453;BME280;30155;52.164;21.236;2022-09-01T08:39:43;101000.32;;;18.95;55.61
44453;BME280;30155;52.164;21.236;2022-09-01T08:49:37;101017.16;;;17.98;56.25
44453;BME280;30155;52.164;21.236;2022-09-01T08:54:42;101006.56;;;18.04;55.83
44453;BME280;30155;52.164;21.236;2022-09-01T08:59:36;101001.45;;;17.90;56.01
44453;BME280;30155;52.164;21.236;2022-09-01T09:09:41;100979.33;;;18.91;54.49
44453;BME280;30155;52.164;21.236;2022-09-01T09:14:36;100987.08;;;19.01;54.50
44453;BME280;30155;52.164;21.236;2022-09-01T09:19:40;100998.92;;;18.63;54.01
44453;BME280;30155;52.164;21.236;2022-09-01T09:24:45;100996.28;;;18.25;54.24
44453;BME280;30155;52.164;21.236;2022-09-01T09:29:41;100984.88;;;18.26;54.32
44453;BME280;30155;52.164;21.236;2022-09-01T09:34:38;100977.83;;;18.28;53.78
44453;BME280;30155;52.164;21.236;2022-09-01T09:39:31;100968.87;;;18.45;53.39
44453;BME280;30155;52.164;21.236;2022-09-01T09:44:28;100978.18;;;18.37;53.50
44453;BME280;30155;52.164;21.236;2022-09-01T09:49:29;100965.03;;;18.36;53.04
44453;BME280;30155;52.164;21.236;2022-09-01T09:54:27;100959.83;;;18.67;52.31
44453;BME280;30155;52.164;21.236;2022-09-01T09:59:26;100962.87;;;19.35;52.50
44453;BME280;30155;52.164;21.236;2022-09-01T10:04:32;100962.99;;;20.97;48.85
44453;BME280;30155;52.164;21.236;2022-09-01T10:14:26;100949.77;;;25.37;42.18
44453;BME280;30155;52.164;21.236;2022-09-01T10:19:33;100938.32;;;28.55;39.08
44453;BME280;30155;52.164;21.236;2022-09-01T10:24:30;100937.89;;;29.56;37.58
44453;BME280;30155;52.164;21.236;2022-09-01T10:34:29;100952.83;;;26.32;38.16
44453;BME280;30155;52.164;21.236;2022-09-01T10:39:23;100949.56;;;27.58;37.30
44453;BME280;30155;52.164;21.236;2022-09-01T10:44:29;100937.87;;;30.53;34.69
44453;BME280;30155;52.164;21.236;2022-09-01T10:59:35;100938.19;;;30.41;32.48
44453;BME280;30155;52.164;21.236;2022-09-01T11:09:35;100938.59;;;28.98;33.63
44453;BME280;30155;52.164;21.236;2022-09-01T11:20:41;100934.13;;;30.27;32.58
44453;BME280;30155;52.164;21.236;2022-09-01T11:25:35;100931.98;;;29.96;33.31
44453;BME280;30155;52.164;21.236;2022-09-01T11:30:58;100929.06;;;31.14;31.03
44453;BME280;30155;52.164;21.236;2022-09-01T11:35:44;100928.42;;;30.82;30.93
44453;BME280;30155;52.164;21.236;2022-09-01T11:40:36;100920.86;;;29.50;31.96
44453;BME280;30155;52.164;21.236;2022-09-01T11:45:29;100936.81;;;27.37;33.08
44453;BME280;30155;52.164;21.236;2022-09-01T11:55:33;100933.23;;;26.72;33.53
44453;BME280;30155;52.164;21.236;2022-09-01T12:00:37;100944.78;;;25.05;34.03
44453;BME280;30155;52.164;21.236;2022-09-01T12:05:31;100950.44;;;23.88;34.82
44453;BME280;30155;52.164;21.236;2022-09-01T12:10:36;100951.08;;;23.55;36.43
44453;BME280;30155;52.164;21.236;2022-09-01T12:15:28;100951.67;;;23.91;36.39
44453;BME280;30155;52.164;21.236;2022-09-01T12:20:23;100950.03;;;23.06;36.84
44453;BME280;30155;52.164;21.236;2022-09-01T12:25:25;100946.78;;;22.66;37.02
44453;BME280;30155;52.164;21.236;2022-09-01T12:30:20;100938.57;;;23.32;38.05
44453;BME280;30155;52.164;21.236;2022-09-01T12:35:22;100935.94;;;23.72;37.02
44453;BME280;30155;52.164;21.236;2022-09-01T12:40:32;100913.72;;;24.13;37.23
44453;BME280;30155;52.164;21.236;2022-09-01T12:50:40;100934.83;;;22.36;36.74
44453;BME280;30155;52.164;21.236;2022-09-01T12:55:34;100928.30;;;21.84;37.50
44453;BME280;30155;52.164;21.236;2022-09-01T13:00:29;100926.84;;;22.53;36.33
44453;BME280;30155;52.164;21.236;2022-09-01T13:05:27;100914.05;;;23.25;37.39
44453;BME280;30155;52.164;21.236;2022-09-01T13:10:32;100915.36;;;22.97;36.50
44453;BME280;30155;52.164;21.236;2022-09-01T13:15:27;100919.44;;;22.18;36.29
44453;BME280;30155;52.164;21.236;2022-09-01T13:20:18;100915.14;;;21.46;37.00
44453;BME280;30155;52.164;21.236;2022-09-01T13:25:12;100911.94;;;21.14;37.57
44453;BME280;30155;52.164;21.236;2022-09-01T13:30:09;100907.45;;;22.19;39.36
44453;BME280;30155;52.164;21.236;2022-09-01T13:35:02;100900.07;;;23.20;37.61
44453;BME280;30155;52.164;21.236;2022-09-01T13:39:54;100900.56;;;23.03;35.81
44453;BME280;30155;52.164;21.236;2022-09-01T13:44:45;100912.73;;;22.52;35.89
44453;BME280;30155;52.164;21.236;2022-09-01T13:49:37;100919.42;;;21.68;36.39
44453;BME280;30155;52.164;21.236;2022-09-01T13:54:27;100922.64;;;21.08;37.22
44453;BME280;30155;52.164;21.236;2022-09-01T13:59:18;100920.81;;;20.71;37.59
44453;BME280;30155;52.164;21.236;2022-09-01T14:04:09;100924.91;;;20.42;38.37
44453;BME280;30155;52.164;21.236;2022-09-01T14:09:00;100928.72;;;20.29;38.99
44453;BME280;30155;52.164;21.236;2022-09-01T14:13:51;100925.58;;;20.53;39.29
44453;BME280;30155;52.164;21.236;2022-09-01T14:18:42;100925.96;;;20.33;39.26
44453;BME280;30155;52.164;21.236;2022-09-01T14:23:34;100933.14;;;20.04;39.55
44453;BME280;30155;52.164;21.236;2022-09-01T14:28:25;100924.47;;;20.65;39.44
44453;BME280;30155;52.164;21.236;2022-09-01T14:33:17;100920.83;;;21.47;39.46
44453;BME280;30155;52.164;21.236;2022-09-01T14:38:11;100914.80;;;22.09;39.43
44453;BME280;30155;52.164;21.236;2022-09-01T14:43:06;100917.06;;;22.55;38.54
44453;BME280;30155;52.164;21.236;2022-09-01T14:48:00;100907.84;;;22.68;38.50
44453;BME280;30155;52.164;21.236;2022-09-01T14:52:54;100918.56;;;22.78;37.68
44453;BME280;30155;52.164;21.236;2022-09-01T14:57:46;100921.09;;;22.05;37.10
44453;BME280;30155;52.164;21.236;2022-09-01T15:02:38;100926.78;;;21.38;37.26
44453;BME280;30155;52.164;21.236;2022-09-01T15:07:31;100926.90;;;20.74;38.37
44453;BME280;30155;52.164;21.236;2022-09-01T15:12:22;100929.97;;;20.53;38.64
44453;BME280;30155;52.164;21.236;2022-09-01T15:17:14;100928.41;;;20.86;38.40
44453;BME280;30155;52.164;21.236;2022-09-01T15:22:05;100925.82;;;21.22;38.36
44453;BME280;30155;52.164;21.236;2022-09-01T15:26:58;100921.81;;;21.61;38.70
44453;BME280;30155;52.164;21.236;2022-09-01T15:31:49;100922.02;;;21.54;38.17
44453;BME280;30155;52.164;21.236;2022-09-01T15:36:40;100922.00;;;21.72;37.91
44453;BME280;30155;52.164;21.236;2022-09-01T15:41:31;100920.00;;;21.80;37.17
44453;BME280;30155;52.164;21.236;2022-09-01T15:46:24;100913.42;;;21.78;37.24
44453;BME280;30155;52.164;21.236;2022-09-01T15:56:21;100907.02;;;21.70;37.30
44453;BME280;30155;52.164;21.236;2022-09-01T16:01:13;100912.48;;;21.64;37.50
44453;BME280;30155;52.164;21.236;2022-09-01T16:06:05;100913.62;;;21.54;37.21
44453;BME280;30155;52.164;21.236;2022-09-01T16:10:57;100908.14;;;21.42;38.20
44453;BME280;30155;52.164;21.236;2022-09-01T16:15:55;100899.28;;;21.27;37.78
44453;BME280;30155;52.164;21.236;2022-09-01T16:21:04;100903.67;;;21.08;37.51
44453;BME280;30155;52.164;21.236;2022-09-01T16:26:00;100911.30;;;20.83;37.41
44453;BME280;30155;52.164;21.236;2022-09-01T16:30:55;100911.05;;;20.53;37.99
44453;BME280;30155;52.164;21.236;2022-09-01T16:36:06;100914.55;;;20.33;38.61
44453;BME280;30155;52.164;21.236;2022-09-01T16:41:11;100914.13;;;20.09;39.02
44453;BME280;30155;52.164;21.236;2022-09-01T16:51:21;100918.80;;;19.42;40.05
44453;BME280;30155;52.164;21.236;2022-09-01T16:56:22;100914.88;;;19.12;40.51
44453;BME280;30155;52.164;21.236;2022-09-01T17:01:46;100919.66;;;18.85;41.16
44453;BME280;30155;52.164;21.236;2022-09-01T17:07:04;100923.52;;;18.56;42.22
44453;BME280;30155;52.164;21.236;2022-09-01T17:12:16;100932.27;;;18.23;42.73
44453;BME280;30155;52.164;21.236;2022-09-01T17:17:14;100937.41;;;17.93;43.92
44453;BME280;30155;52.164;21.236;2022-09-01T17:22:11;100939.43;;;17.62;44.45
44453;BME280;30155;52.164;21.236;2022-09-01T17:27:19;100939.17;;;17.38;45.23
44453;BME280;30155;52.164;21.236;2022-09-01T17:32:53;100946.76;;;17.15;46.07
44453;BME280;30155;52.164;21.236;2022-09-01T17:38:13;100947.80;;;16.88;46.51
44453;BME280;30155;52.164;21.236;2022-09-01T18:09:26;100997.42;;;15.48;49.31
44453;BME280;30155;52.164;21.236;2022-09-01T18:14:20;101009.62;;;15.31;49.71
44453;BME280;30155;52.164;21.236;2022-09-01T18:19:39;101009.16;;;15.17;50.28
44453;BME280;30155;52.164;21.236;2022-09-01T18:29:42;101017.38;;;14.97;51.15
44453;BME280;30155;52.164;21.236;2022-09-01T18:34:58;101032.17;;;14.85;51.96
44453;BME280;30155;52.164;21.236;2022-09-01T18:50:43;101033.37;;;14.64;52.73
44453;BME280;30155;52.164;21.236;2022-09-01T19:00:41;101045.50;;;14.53;53.65
44453;BME280;30155;52.164;21.236;2022-09-01T19:21:29;101054.86;;;14.20;54.59
44453;BME280;30155;52.164;21.236;2022-09-01T19:26:24;101062.14;;;14.03;54.98
44453;BME280;30155;52.164;21.236;2022-09-01T19:31:35;101065.98;;;13.94;55.36
44453;BME280;30155;52.164;21.236;2022-09-01T19:41:30;101068.37;;;13.69;55.85
44453;BME280;30155;52.164;21.236;2022-09-01T19:46:36;101058.69;;;13.58;56.29
44453;BME280;30155;52.164;21.236;2022-09-01T19:56:51;101066.80;;;13.45;56.49
44453;BME280;30155;52.164;21.236;2022-09-01T20:02:25;101081.06;;;13.32;56.74
44453;BME280;30155;52.164;21.236;2022-09-01T20:07:50;101079.90;;;13.12;56.98
44453;BME280;30155;52.164;21.236;2022-09-01T20:12:40;101090.64;;;13.01;57.16
44453;BME280;30155;52.164;21.236;2022-09-01T20:17:57;101100.14;;;12.95;57.33
44453;BME280;30155;52.164;21.236;2022-09-01T20:28:51;101101.56;;;12.72;57.49
44453;BME280;30155;52.164;21.236;2022-09-01T20:33:50;101103.55;;;12.60;57.87
44453;BME280;30155;52.164;21.236;2022-09-01T20:44:12;101117.11;;;12.37;58.73
44453;BME280;30155;52.164;21.236;2022-09-01T20:49:08;101122.50;;;12.20;58.66
44453;BME280;30155;52.164;21.236;2022-09-01T20:54:17;101122.69;;;12.07;59.09
44453;BME280;30155;52.164;21.236;2022-09-01T20:59:09;101120.60;;;11.88;59.05
44453;BME280;30155;52.164;21.236;2022-09-01T21:09:56;101129.69;;;11.64;60.17
44453;BME280;30155;52.164;21.236;2022-09-01T21:15:05;101139.09;;;11.56;60.50
44453;BME280;30155;52.164;21.236;2022-09-01T21:20:20;101133.24;;;11.45;60.87
44453;BME280;30155;52.164;21.236;2022-09-01T21:25:29;101136.58;;;11.38;61.15
44453;BME280;30155;52.164;21.236;2022-09-01T21:30:21;101145.36;;;11.23;61.32
44453;BME280;30155;52.164;21.236;2022-09-01T21:40:08;101144.22;;;11.10;61.84
44453;BME280;30155;52.164;21.236;2022-09-01T21:45:02;101153.61;;;11.03;62.06
44453;BME280;30155;52.164;21.236;2022-09-01T21:49:55;101159.63;;;11.01;62.00
44453;BME280;30155;52.164;21.236;2022-09-01T21:54:46;101158.17;;;10.93;62.03
44453;BME280;30155;52.164;21.236;2022-09-01T21:59:37;101161.01;;;10.85;62.05
44453;BME280;30155;52.164;21.236;2022-09-01T22:04:28;101162.63;;;10.80;62.26
44453;BME280;30155;52.164;21.236;2022-09-01T22:09:21;101160.33;;;10.75;62.58
44453;BME280;30155;52.164;21.236;2022-09-01T22:14:13;101171.28;;;10.79;62.75
44453;BME280;30155;52.164;21.236;2022-09-01T22:19:05;101170.03;;;10.82;62.86
44453;BME280;30155;52.164;21.236;2022-09-01T22:23:57;101165.17;;;10.77;62.95
44453;BME280;30155;52.164;21.236;2022-09-01T22:28:48;101160.72;;;10.73;63.08
44453;BME280;30155;52.164;21.236;2022-09-01T22:33:39;101170.21;;;10.71;63.12
44453;BME280;30155;52.164;21.236;2022-09-01T22:38:31;101162.37;;;10.69;63.50
44453;BME280;30155;52.164;21.236;2022-09-01T22:43:23;101168.00;;;10.68;63.32
44453;BME280;30155;52.164;21.236;2022-09-01T22:48:18;101168.39;;;10.66;63.51
44453;BME280;30155;52.164;21.236;2022-09-01T22:53:11;101165.63;;;10.60;63.46
44453;BME280;30155;52.164;21.236;2022-09-01T22:58:08;101172.22;;;10.46;63.48
44453;BME280;30155;52.164;21.236;2022-09-01T23:03:00;101166.41;;;10.39;63.59
44453;BME280;30155;52.164;21.236;2022-09-01T23:07:53;101166.39;;;10.21;63.65
44453;BME280;30155;52.164;21.236;2022-09-01T23:12:45;101170.50;;;10.13;64.05
44453;BME280;30155;52.164;21.236;2022-09-01T23:17:36;101172.09;;;10.08;63.91
44453;BME280;30155;52.164;21.236;2022-09-01T23:22:28;101168.73;;;9.96;64.02
44453;BME280;30155;52.164;21.236;2022-09-01T23:27:19;101173.35;;;9.90;64.10
44453;BME280;30155;52.164;21.236;2022-09-01T23:32:10;101178.83;;;9.84;64.20
44453;BME280;30155;52.164;21.236;2022-09-01T23:37:01;101177.30;;;9.76;64.17
44453;BME280;30155;52.164;21.236;2022-09-01T23:41:52;101176.28;;;9.71;64.29
44453;BME280;30155;52.164;21.236;2022-09-01T23:46:45;101184.32;;;9.48;64.61
44453;BME280;30155;52.164;21.236;2022-09-01T23:51:36;101184.32;;;9.48;64.61
44453;BME280;30155;52.164;21.236;2022-09-01T23:56:29;101187.25;;;9.45;64.62
